createdAt,value
2023-03-18T00:25:09.108Z,99843.06
2023-03-18T00:27:39.271Z,99808.34
2023-03-18T00:30:09.164Z,99850.19
2023-03-18T00:32:38.856Z,99839.19
2023-03-18T00:35:07.818Z,99853.78
2023-03-18T00:37:36.666Z,99804.28
2023-03-18T00:40:10.898Z,99854.28
2023-03-18T00:42:48.240Z,99856.88
2023-03-18T00:45:18.558Z,99853.94
2023-03-18T00:47:48.582Z,99825.44
2023-03-18T00:50:16.813Z,99811.25
2023-03-18T00:52:46.584Z,99852.97
2023-03-18T00:55:16.321Z,99813.50
2023-03-18T00:57:45.505Z,99838.91
2023-03-18T01:00:17.085Z,99855.63
2023-03-18T01:02:46.088Z,99850.41
2023-03-18T01:05:14.754Z,99830.50
2023-03-18T01:07:43.817Z,99836.84
2023-03-18T01:10:14.627Z,99840.75
2023-03-18T01:12:46.724Z,99855.66
2023-03-18T01:15:17.720Z,99844.50
2023-03-18T01:17:48.314Z,99854.56
2023-03-18T01:20:21.635Z,99853.22
2023-03-18T01:22:51.964Z,99809.16
2023-03-18T01:25:20.448Z,99851.72
2023-03-18T01:27:50.261Z,99808.78
2023-03-18T01:30:19.631Z,99849.59
2023-03-18T01:32:50.642Z,99802.53
2023-03-18T01:35:20.264Z,99818.47
2023-03-18T01:37:48.959Z,99871.22
2023-03-18T01:40:18.317Z,99859.28
2023-03-18T01:42:58.924Z,99853.63
2023-03-18T01:45:31.280Z,99858.69
2023-03-18T01:48:00.837Z,99821.78
2023-03-18T01:50:35.093Z,99863.06
2023-03-18T01:53:07.681Z,99865.31
2023-03-18T01:55:38.434Z,99852.28
2023-03-18T01:58:14.971Z,99819.41
2023-03-18T02:00:48.235Z,99859.22
2023-03-18T02:03:19.202Z,99864.13
2023-03-18T02:05:51.274Z,99851.22
2023-03-18T02:08:20.355Z,99849.34
2023-03-18T02:10:49.088Z,99817.78
2023-03-18T02:13:19.821Z,99841.56
2023-03-18T02:15:53.429Z,99852.31
2023-03-18T02:18:33.467Z,99834.91
2023-03-18T02:21:16.618Z,99857.94
2023-03-18T02:23:54.085Z,99843.75
2023-03-18T02:26:32.646Z,99851.63
2023-03-18T02:29:05.987Z,99820.16
2023-03-18T02:31:38.042Z,99851.41
2023-03-18T02:34:10.425Z,99845.09
2023-03-18T02:36:41.461Z,99794.91
2023-03-18T02:39:14.163Z,99841.63
2023-03-18T02:41:46.094Z,99848.13
2023-03-18T02:44:19.222Z,99833.00
2023-03-18T02:46:55.707Z,99839.25
2023-03-18T02:49:26.306Z,99853.44
2023-03-18T02:51:55.075Z,99809.94
2023-03-18T02:54:24.800Z,99819.53
2023-03-18T02:56:53.686Z,99869.38
2023-03-18T02:59:23.985Z,99853.44
2023-03-18T03:01:54.876Z,99878.03
2023-03-18T03:04:25.520Z,99871.28
2023-03-18T03:06:56.757Z,99869.38
2023-03-18T03:09:24.981Z,99878.25
2023-03-18T03:11:57.080Z,99873.97
2023-03-18T03:14:27.559Z,99830.13
2023-03-18T03:16:55.864Z,99864.66
2023-03-18T03:19:24.527Z,99835.06
2023-03-18T03:21:53.868Z,99820.78
2023-03-18T03:24:23.617Z,99801.25
2023-03-18T03:26:51.701Z,99843.75
2023-03-18T03:29:20.377Z,99864.94
2023-03-18T03:31:53.190Z,99881.81
2023-03-18T03:34:21.023Z,99863.09
2023-03-18T03:36:49.900Z,99900.72
2023-03-18T03:39:19.101Z,99887.09
2023-03-18T03:41:46.991Z,99877.88
2023-03-18T03:44:14.871Z,99885.03
2023-03-18T03:46:42.933Z,99910.31
2023-03-18T03:49:14.268Z,99910.47
2023-03-18T03:51:43.740Z,99911.25
2023-03-18T03:54:13.873Z,99866.16
2023-03-18T03:56:43.545Z,99911.03
2023-03-18T03:59:11.724Z,99897.16
2023-03-18T04:01:40.631Z,99917.19
2023-03-18T04:04:11.715Z,99924.19
2023-03-18T04:06:41.127Z,99894.09
2023-03-18T04:09:09.714Z,99888.91
2023-03-18T04:11:39.064Z,99907.25
2023-03-18T04:14:06.980Z,99906.03
2023-03-18T04:16:35.550Z,99879.78
2023-03-18T04:19:03.598Z,99890.56
2023-03-18T04:21:32.281Z,99907.38
2023-03-18T04:24:04.169Z,99901.41
2023-03-18T04:26:32.911Z,99868.47
2023-03-18T04:29:00.801Z,99879.94
2023-03-18T04:31:29.612Z,99907.50
2023-03-18T04:33:57.823Z,99909.38
2023-03-18T04:36:27.473Z,99906.59
2023-03-18T04:38:57.119Z,99921.59
2023-03-18T04:41:27.104Z,99900.88
2023-03-18T04:43:55.139Z,99867.47
2023-03-18T04:46:23.818Z,99904.00
2023-03-18T04:48:53.635Z,99827.88
2023-03-18T04:51:23.668Z,99853.56
2023-03-18T04:53:53.422Z,99904.66
2023-03-18T04:56:22.279Z,99870.44
2023-03-18T04:58:52.843Z,99886.91
2023-03-18T05:01:21.934Z,99901.00
2023-03-18T05:03:50.754Z,99878.22
2023-03-18T05:06:27.091Z,99923.50
2023-03-18T05:08:55.260Z,99919.53
2023-03-18T05:11:23.339Z,99922.31
2023-03-18T05:13:56.106Z,99919.56
2023-03-18T05:16:26.620Z,99902.84
2023-03-18T05:18:54.534Z,99861.88
2023-03-18T05:21:22.894Z,99919.72
2023-03-18T05:23:53.485Z,99918.16
2023-03-18T05:26:23.015Z,99901.00
2023-03-18T05:28:55.079Z,99873.09
2023-03-18T05:31:24.812Z,99881.13
2023-03-18T05:33:53.101Z,99910.03
2023-03-18T05:36:22.036Z,99907.00
2023-03-18T05:38:53.995Z,99910.13
2023-03-18T05:41:24.960Z,99907.50
2023-03-18T05:43:57.990Z,99909.31
2023-03-18T05:46:28.383Z,99922.13
2023-03-18T05:48:58.509Z,99926.47
2023-03-18T05:51:28.312Z,99886.66
2023-03-18T05:53:56.621Z,99894.69
2023-03-18T05:56:26.745Z,99930.22
2023-03-18T05:58:58.961Z,99943.47
2023-03-18T06:01:31.870Z,99925.19
2023-03-18T06:04:01.406Z,99931.84
2023-03-18T06:06:31.039Z,99939.91
2023-03-18T06:08:58.980Z,99931.06
2023-03-18T06:11:28.230Z,99946.00
2023-03-18T06:14:00.289Z,99940.50
2023-03-18T06:16:31.744Z,99936.50
2023-03-18T06:19:00.005Z,99903.16
2023-03-18T06:21:28.821Z,99930.78
2023-03-18T06:23:57.650Z,99934.72
2023-03-18T06:26:25.795Z,99943.16
2023-03-18T06:28:54.865Z,99947.00
2023-03-18T06:31:24.656Z,99938.91
2023-03-18T06:33:55.305Z,99933.44
2023-03-18T06:36:23.932Z,99942.66
2023-03-18T06:38:53.700Z,99922.19
2023-03-18T06:41:22.991Z,99943.06
2023-03-18T06:43:54.112Z,99906.00
2023-03-18T06:46:30.519Z,99945.91
2023-03-18T06:49:00.381Z,99905.28
2023-03-18T06:51:31.419Z,99928.75
2023-03-18T06:54:00.030Z,99948.63
2023-03-18T06:56:35.325Z,99958.91
2023-03-18T06:59:03.761Z,99956.84
2023-03-18T07:01:35.868Z,99952.72
2023-03-18T07:04:08.897Z,99961.84
2023-03-18T07:06:37.505Z,99972.69
2023-03-18T07:09:11.236Z,99950.75
2023-03-18T07:11:40.784Z,99963.72
2023-03-18T07:14:10.884Z,99967.47
2023-03-18T07:16:40.754Z,99954.78
2023-03-18T07:19:11.284Z,99924.44
2023-03-18T07:21:43.735Z,99939.22
2023-03-18T07:24:14.398Z,99932.28
2023-03-18T07:26:43.957Z,99969.75
2023-03-18T07:29:13.177Z,99959.72
2023-03-18T07:31:44.977Z,99931.25
2023-03-18T07:34:15.078Z,99941.81
2023-03-18T07:36:45.739Z,99976.25
2023-03-18T07:39:17.061Z,99967.28
2023-03-18T07:41:47.138Z,99950.19
2023-03-18T07:44:15.804Z,99940.41
2023-03-18T07:46:47.542Z,99980.69
2023-03-18T07:49:20.131Z,99973.72
2023-03-18T07:51:50.759Z,99976.09
2023-03-18T07:54:22.739Z,99968.88
2023-03-18T07:56:52.815Z,99981.63
2023-03-18T07:59:27.633Z,99960.69
2023-03-18T08:01:58.680Z,99979.63
2023-03-18T08:04:32.145Z,99972.66
2023-03-18T08:07:01.641Z,99937.03
2023-03-18T08:09:52.423Z,99964.84
2023-03-18T08:12:22.691Z,99975.50
2023-03-18T08:14:54.284Z,99902.63
2023-03-18T08:17:24.839Z,99953.50
2023-03-18T08:19:53.036Z,99979.84
2023-03-18T08:22:22.302Z,99967.66
2023-03-18T08:24:55.417Z,99982.75
2023-03-18T08:27:23.703Z,99967.84
2023-03-18T08:29:53.777Z,99980.94
2023-03-18T08:32:28.897Z,99988.09
2023-03-18T08:34:58.858Z,99980.63
2023-03-18T08:37:31.909Z,99955.97
2023-03-18T08:40:02.460Z,99958.78
2023-03-18T08:42:34.883Z,99983.22
2023-03-18T08:45:13.560Z,99967.53
2023-03-18T08:47:46.363Z,99983.56
2023-03-18T08:50:16.388Z,99977.78
2023-03-18T08:52:45.510Z,99968.94
2023-03-18T08:55:14.673Z,99969.50
2023-03-18T08:57:43.924Z,99965.28
2023-03-18T09:00:17.466Z,99973.16
2023-03-18T09:02:49.167Z,99947.69
2023-03-18T09:05:18.195Z,99911.53
2023-03-18T09:07:57.572Z,99966.22
2023-03-18T09:10:26.332Z,99977.81
2023-03-18T09:12:55.165Z,99975.63
2023-03-18T09:15:27.380Z,99979.91
2023-03-18T09:18:11.032Z,99975.22
2023-03-18T09:20:42.385Z,99946.63
2023-03-18T09:23:16.827Z,99984.56
2023-03-18T09:25:45.342Z,99972.44
2023-03-18T09:28:16.666Z,99964.47
2023-03-18T09:30:45.618Z,99959.06
2023-03-18T09:33:24.751Z,99967.41
2023-03-18T09:35:55.047Z,99966.00
2023-03-18T09:38:27.599Z,99959.03
2023-03-18T09:41:07.256Z,99954.00
2023-03-18T09:43:57.511Z,99972.19
2023-03-18T09:46:34.308Z,99979.00
2023-03-18T09:49:41.902Z,99977.22
2023-03-18T09:52:21.561Z,99974.75
2023-03-18T09:55:00.007Z,99967.06
2023-03-18T09:57:31.869Z,99981.38
2023-03-18T10:00:19.053Z,99981.16
2023-03-18T10:02:57.354Z,99939.63
2023-03-18T10:05:51.312Z,99960.31
2023-03-18T10:08:26.619Z,99978.41
2023-03-18T10:10:54.966Z,99963.22
2023-03-18T10:13:29.871Z,99976.94
2023-03-18T10:16:04.226Z,99973.50
2023-03-18T10:18:34.586Z,99941.03
2023-03-18T10:21:20.229Z,99972.47
2023-03-18T10:23:57.141Z,99958.38
2023-03-18T10:26:33.413Z,99954.31
2023-03-18T10:29:14.653Z,99936.59
2023-03-18T10:32:00.225Z,99958.81
2023-03-18T10:34:38.877Z,99901.19
2023-03-18T10:37:19.041Z,99940.78
2023-03-18T10:39:50.861Z,99968.69
2023-03-18T10:42:27.292Z,99964.56
2023-03-18T10:45:09.697Z,99962.13
2023-03-18T10:47:44.578Z,99966.34
2023-03-18T10:50:20.360Z,99938.41
2023-03-18T10:53:00.570Z,99959.03
2023-03-18T10:55:34.530Z,99956.00
2023-03-18T10:58:19.658Z,99940.91
2023-03-18T11:00:47.658Z,99940.09
2023-03-18T11:03:29.566Z,99938.16
2023-03-18T11:06:03.051Z,99901.69
2023-03-18T11:08:44.569Z,99939.19
2023-03-18T11:11:34.193Z,99928.53
2023-03-18T11:14:10.118Z,99893.16
2023-03-18T11:16:41.677Z,99934.34
2023-03-18T11:19:27.959Z,99905.50
2023-03-18T11:22:20.694Z,99931.78
2023-03-18T11:25:03.308Z,99912.50
2023-03-18T11:27:39.627Z,99929.84
2023-03-18T11:30:36.333Z,99941.34
2023-03-18T11:33:15.359Z,99907.06
2023-03-18T11:35:48.299Z,99929.06
2023-03-18T11:38:19.356Z,99917.94
2023-03-18T11:41:18.549Z,99912.31
2023-03-18T11:44:02.105Z,99931.13
2023-03-18T11:46:36.380Z,99893.06
2023-03-18T11:49:07.070Z,99915.53
2023-03-18T11:51:49.581Z,99935.19
2023-03-18T11:54:54.075Z,99929.53
2023-03-18T11:57:33.388Z,99925.06
2023-03-18T12:00:17.704Z,99926.00
2023-03-18T12:03:28.968Z,99891.06
2023-03-18T12:06:08.822Z,99901.72
2023-03-18T12:08:57.632Z,99926.66
2023-03-18T12:11:43.268Z,99917.56
2023-03-18T12:14:20.408Z,99903.38
2023-03-18T12:17:05.444Z,99918.66
2023-03-18T12:19:52.100Z,99883.38
2023-03-18T12:22:53.105Z,99907.41
2023-03-18T12:25:56.963Z,99906.25
2023-03-18T12:28:46.021Z,99892.28
2023-03-18T12:31:35.376Z,99893.09
2023-03-18T12:34:06.759Z,99902.09
2023-03-18T12:36:57.581Z,99910.63
2023-03-18T12:40:04.452Z,99896.72
2023-03-18T12:42:50.539Z,99878.16
2023-03-18T12:45:25.666Z,99883.03
2023-03-18T12:51:17.449Z,99888.50
2023-03-18T12:57:07.360Z,99877.50
2023-03-18T12:59:43.909Z,99878.16
2023-03-18T13:02:32.057Z,99877.16
2023-03-18T13:05:10.165Z,99874.22
2023-03-18T13:07:49.051Z,99855.47
2023-03-18T13:10:24.785Z,99875.31
2023-03-18T13:13:05.836Z,99841.19
2023-03-18T13:15:38.480Z,99872.72
2023-03-18T13:18:20.234Z,99871.09
2023-03-18T15:09:16.312Z,99811.78
2023-03-18T15:12:05.075Z,99782.34
2023-03-18T15:14:42.319Z,99815.31
2023-03-18T15:17:19.277Z,99799.50
2023-03-18T15:19:59.916Z,99809.75
2023-03-18T15:22:53.092Z,99810.38
2023-03-18T15:28:48.100Z,99804.13
2023-03-18T15:31:57.652Z,99805.19
2023-03-18T15:42:08.350Z,99801.75
2023-03-18T15:44:58.515Z,99803.69
2023-03-18T15:47:45.482Z,99809.63
2023-03-18T15:50:48.685Z,99816.50
2023-03-18T15:53:45.463Z,99823.56
2023-03-18T15:56:18.730Z,99813.16
2023-03-18T15:59:10.983Z,99826.28
2023-03-18T16:01:46.673Z,99803.97
2023-03-18T16:04:39.241Z,99813.63
2023-03-18T16:07:35.147Z,99812.69
2023-03-18T16:13:10.947Z,99810.81
2023-03-18T16:15:54.636Z,99797.72
2023-03-18T16:18:41.296Z,99824.78
2023-03-18T16:24:43.983Z,99826.16
2023-03-18T16:27:42.997Z,99812.03
2023-03-18T16:30:37.304Z,99815.88
2023-03-18T16:33:21.927Z,99799.22
2023-03-18T16:42:22.964Z,99821.47
2023-03-18T19:33:31.025Z,99865.22
2023-03-18T19:35:59.216Z,99923.25
2023-03-18T19:38:35.916Z,99921.41
2023-03-18T19:41:04.718Z,99908.25
2023-03-18T19:43:36.249Z,99909.00
2023-03-18T19:46:11.077Z,99925.28
2023-03-18T19:48:42.036Z,99888.34
2023-03-18T19:51:15.479Z,99906.19
2023-03-18T19:53:47.913Z,99931.72
2023-03-18T19:56:28.548Z,99905.03
2023-03-18T19:59:00.335Z,99922.81
2023-03-18T20:01:31.084Z,99910.97
2023-03-18T20:04:02.640Z,99933.75
2023-03-18T20:06:32.461Z,99919.19
2023-03-18T20:09:00.868Z,99940.69
2023-03-18T20:11:30.372Z,99938.13
2023-03-18T20:13:59.481Z,99953.44
2023-03-18T20:16:29.525Z,99947.09
2023-03-18T20:18:57.647Z,99947.19
2023-03-18T20:24:19.236Z,99957.94
2023-03-18T20:26:48.677Z,99956.03
2023-03-18T20:29:19.865Z,99960.44
2023-03-18T20:31:52.189Z,99953.59
2023-03-18T20:34:21.051Z,99941.91
2023-03-18T20:36:50.110Z,99957.03
2023-03-18T20:39:24.424Z,99956.22
2023-03-18T20:41:58.396Z,99960.97
2023-03-18T20:44:26.332Z,99915.19
2023-03-18T20:46:57.237Z,99953.88
2023-03-18T20:49:25.812Z,99932.78
2023-03-18T20:51:54.123Z,99954.09
2023-03-18T20:54:30.424Z,99971.13
2023-03-18T20:57:01.993Z,99947.47
2023-03-18T20:59:31.312Z,99974.19
2023-03-18T21:02:04.542Z,99963.06
2023-03-18T21:04:32.619Z,99934.00
2023-03-18T21:07:03.885Z,99979.06
2023-03-18T21:09:35.792Z,99950.06
2023-03-18T21:12:06.489Z,99973.84
2023-03-18T21:14:34.725Z,99936.47
2023-03-18T21:17:02.693Z,99921.44
2023-03-18T21:19:30.787Z,99969.13
2023-03-18T21:21:59.928Z,99976.19
2023-03-18T21:24:31.806Z,99978.44
2023-03-18T21:27:05.202Z,99975.13
2023-03-18T21:29:35.188Z,99967.34
2023-03-18T21:32:03.463Z,99973.47
2023-03-18T21:34:32.140Z,99972.03
2023-03-18T21:36:59.998Z,99971.59
2023-03-18T21:39:28.177Z,99973.00
2023-03-18T21:41:58.105Z,99966.59
2023-03-18T21:44:28.049Z,99958.34
2023-03-18T21:46:57.409Z,99971.94
2023-03-18T21:49:27.597Z,99969.94
2023-03-18T21:51:56.646Z,99967.94
2023-03-18T21:54:26.682Z,99964.38
2023-03-18T21:56:57.685Z,99967.09
2023-03-18T21:59:27.141Z,99948.88
2023-03-18T22:01:55.429Z,99972.03
2023-03-18T22:04:23.427Z,99953.47
2023-03-18T22:06:52.718Z,99965.19
2023-03-18T22:09:21.011Z,99971.00
2023-03-18T22:11:50.735Z,99967.44
2023-03-18T22:14:19.188Z,99965.91
2023-03-18T22:16:50.549Z,99914.47
2023-03-18T22:19:23.529Z,99963.53
2023-03-18T22:21:52.722Z,99958.22
2023-03-18T22:24:23.387Z,99950.03
2023-03-18T22:26:51.719Z,99961.63
2023-03-18T22:29:25.368Z,99949.00
2023-03-18T22:31:55.730Z,99940.69
2023-03-18T22:34:28.008Z,99954.66
2023-03-18T22:36:56.797Z,99939.63
2023-03-18T22:39:25.064Z,99962.56
2023-03-18T22:41:53.509Z,99963.50
2023-03-18T22:44:25.516Z,99943.41
2023-03-18T22:46:56.544Z,99945.97
2023-03-18T22:49:27.570Z,99958.03
2023-03-18T22:51:56.047Z,99964.56
2023-03-18T22:54:24.576Z,99965.50
2023-03-18T22:56:52.826Z,99969.94
2023-03-18T22:59:21.168Z,99974.88
2023-03-18T23:01:50.898Z,99972.50
2023-03-18T23:04:20.328Z,99934.94
2023-03-18T23:06:48.404Z,99976.75
2023-03-18T23:09:16.772Z,99973.41
2023-03-18T23:11:46.957Z,99944.00
2023-03-18T23:14:15.017Z,99982.78
2023-03-18T23:16:43.791Z,99979.94
2023-03-18T23:19:12.520Z,99991.34
2023-03-18T23:21:42.022Z,99996.66
2023-03-18T23:24:11.046Z,99994.97
2023-03-18T23:26:40.121Z,99984.22
2023-03-18T23:29:10.897Z,99999.72
2023-03-18T23:31:38.760Z,99984.00
2023-03-18T23:34:06.685Z,99986.50
2023-03-18T23:36:34.966Z,99982.84
2023-03-18T23:39:05.889Z,99979.63
2023-03-18T23:41:35.276Z,99987.06
2023-03-18T23:44:03.821Z,99991.22
2023-03-18T23:46:33.139Z,99978.31
2023-03-18T23:49:03.374Z,99965.44
2023-03-18T23:51:33.217Z,99988.50
2023-03-18T23:54:01.987Z,99988.28
2023-03-18T23:56:35.283Z,99970.88
2023-03-18T23:59:05.007Z,99979.03
